sensor_id;sensor_type;location;lat;lon;timestamp;P1;durP1;ratioP1;P2;durP2;ratioP2
69900;SDS011;57183;50.930;5.406;2023-02-28T00:01:25;8.43;;;4.82;;
69900;SDS011;57183;50.930;5.406;2023-02-28T00:03:51;7.63;;;4.40;;
69900;SDS011;57183;50.930;5.406;2023-02-28T00:06:16;8.65;;;4.50;;
69900;SDS011;57183;50.930;5.406;2023-02-28T00:08:42;6.35;;;4.43;;
69900;SDS011;57183;50.930;5.406;2023-02-28T00:11:09;5.85;;;3.95;;
69900;SDS011;57183;50.930;5.406;2023-02-28T00:13:38;6.07;;;4.43;;
69900;SDS011;57183;50.930;5.406;2023-02-28T00:16:06;6.82;;;4.40;;
69900;SDS011;57183;50.930;5.406;2023-02-28T00:18:34;13.50;;;5.32;;
69900;SDS011;57183;50.930;5.406;2023-02-28T00:21:00;13.93;;;5.03;;
69900;SDS011;57183;50.930;5.406;2023-02-28T00:23:26;8.82;;;5.53;;
69900;SDS011;57183;50.930;5.406;2023-02-28T00:25:52;8.75;;;5.20;;
69900;SDS011;57183;50.930;5.406;2023-02-28T00:28:18;13.57;;;4.45;;
69900;SDS011;57183;50.930;5.406;2023-02-28T00:30:44;5.70;;;4.32;;
69900;SDS011;57183;50.930;5.406;2023-02-28T00:33:10;9.57;;;5.28;;
69900;SDS011;57183;50.930;5.406;2023-02-28T00:35:36;5.55;;;4.57;;
69900;SDS011;57183;50.930;5.406;2023-02-28T00:38:01;9.05;;;4.90;;
69900;SDS011;57183;50.930;5.406;2023-02-28T00:40:27;8.70;;;4.60;;
69900;SDS011;57183;50.930;5.406;2023-02-28T00:42:53;7.82;;;4.95;;
69900;SDS011;57183;50.930;5.406;2023-02-28T00:45:19;6.85;;;4.88;;
69900;SDS011;57183;50.930;5.406;2023-02-28T00:47:45;5.20;;;4.28;;
69900;SDS011;57183;50.930;5.406;2023-02-28T00:50:11;5.18;;;4.47;;
69900;SDS011;57183;50.930;5.406;2023-02-28T00:52:37;5.00;;;4.30;;
69900;SDS011;57183;50.930;5.406;2023-02-28T00:55:03;6.53;;;4.90;;
69900;SDS011;57183;50.930;5.406;2023-02-28T00:57:29;10.23;;;4.95;;
69900;SDS011;57183;50.930;5.406;2023-02-28T00:59:55;6.78;;;4.72;;
69900;SDS011;57183;50.930;5.406;2023-02-28T01:02:21;7.55;;;4.88;;
69900;SDS011;57183;50.930;5.406;2023-02-28T01:04:47;9.73;;;5.15;;
69900;SDS011;57183;50.930;5.406;2023-02-28T01:07:13;6.32;;;5.03;;
69900;SDS011;57183;50.930;5.406;2023-02-28T01:09:39;5.13;;;4.57;;
69900;SDS011;57183;50.930;5.406;2023-02-28T01:12:06;7.45;;;5.20;;
69900;SDS011;57183;50.930;5.406;2023-02-28T01:14:33;9.10;;;5.40;;
69900;SDS011;57183;50.930;5.406;2023-02-28T01:17:00;9.80;;;6.03;;
69900;SDS011;57183;50.930;5.406;2023-02-28T01:19:26;6.95;;;4.97;;
69900;SDS011;57183;50.930;5.406;2023-02-28T01:21:52;9.45;;;5.63;;
69900;SDS011;57183;50.930;5.406;2023-02-28T01:24:18;8.75;;;5.45;;
69900;SDS011;57183;50.930;5.406;2023-02-28T01:26:43;6.80;;;5.45;;
69900;SDS011;57183;50.930;5.406;2023-02-28T01:29:09;9.27;;;5.72;;
69900;SDS011;57183;50.930;5.406;2023-02-28T01:31:35;7.30;;;5.05;;
69900;SDS011;57183;50.930;5.406;2023-02-28T01:34:00;8.45;;;5.70;;
69900;SDS011;57183;50.930;5.406;2023-02-28T01:36:26;7.10;;;5.03;;
69900;SDS011;57183;50.930;5.406;2023-02-28T01:38:52;6.90;;;4.97;;
69900;SDS011;57183;50.930;5.406;2023-02-28T01:41:20;6.30;;;5.18;;
69900;SDS011;57183;50.930;5.406;2023-02-28T01:46:13;7.68;;;5.40;;
69900;SDS011;57183;50.930;5.406;2023-02-28T01:48:46;7.32;;;5.57;;
69900;SDS011;57183;50.930;5.406;2023-02-28T01:51:22;10.80;;;5.30;;
69900;SDS011;57183;50.930;5.406;2023-02-28T01:53:57;12.10;;;5.70;;
69900;SDS011;57183;50.930;5.406;2023-02-28T01:56:27;10.68;;;5.57;;
69900;SDS011;57183;50.930;5.406;2023-02-28T01:58:57;5.57;;;4.95;;
69900;SDS011;57183;50.930;5.406;2023-02-28T02:01:23;8.80;;;6.40;;
69900;SDS011;57183;50.930;5.406;2023-02-28T02:03:53;10.10;;;5.40;;
69900;SDS011;57183;50.930;5.406;2023-02-28T02:06:32;9.40;;;5.35;;
69900;SDS011;57183;50.930;5.406;2023-02-28T02:09:05;6.95;;;5.40;;
69900;SDS011;57183;50.930;5.406;2023-02-28T02:11:31;8.30;;;5.65;;
69900;SDS011;57183;50.930;5.406;2023-02-28T02:16:42;7.03;;;5.82;;
69900;SDS011;57183;50.930;5.406;2023-02-28T02:25:39;8.20;;;5.75;;
69900;SDS011;57183;50.930;5.406;2023-02-28T02:42:14;6.50;;;4.78;;
69900;SDS011;57183;50.930;5.406;2023-02-28T02:44:51;5.88;;;5.22;;
69900;SDS011;57183;50.930;5.406;2023-02-28T02:47:26;6.55;;;5.55;;
69900;SDS011;57183;50.930;5.406;2023-02-28T02:49:55;6.50;;;5.50;;
69900;SDS011;57183;50.930;5.406;2023-02-28T02:52:24;9.38;;;6.60;;
69900;SDS011;57183;50.930;5.406;2023-02-28T02:54:56;11.85;;;6.30;;
69900;SDS011;57183;50.930;5.406;2023-02-28T02:57:25;10.05;;;5.68;;
69900;SDS011;57183;50.930;5.406;2023-02-28T02:59:57;10.70;;;6.28;;
69900;SDS011;57183;50.930;5.406;2023-02-28T03:02:23;7.20;;;5.80;;
69900;SDS011;57183;50.930;5.406;2023-02-28T03:04:52;8.48;;;5.80;;
69900;SDS011;57183;50.930;5.406;2023-02-28T03:07:20;8.20;;;5.82;;
69900;SDS011;57183;50.930;5.406;2023-02-28T03:09:53;9.15;;;5.45;;
69900;SDS011;57183;50.930;5.406;2023-02-28T03:12:20;9.85;;;6.18;;
69900;SDS011;57183;50.930;5.406;2023-02-28T03:15:17;11.13;;;5.75;;
69900;SDS011;57183;50.930;5.406;2023-02-28T03:23:04;6.93;;;5.75;;
69900;SDS011;57183;50.930;5.406;2023-02-28T03:28:32;8.43;;;6.38;;
69900;SDS011;57183;50.930;5.406;2023-02-28T03:31:21;11.75;;;6.72;;
69900;SDS011;57183;50.930;5.406;2023-02-28T03:36:32;8.73;;;5.93;;
69900;SDS011;57183;50.930;5.406;2023-02-28T03:39:09;9.57;;;7.22;;
69900;SDS011;57183;50.930;5.406;2023-02-28T03:41:42;9.55;;;6.13;;
69900;SDS011;57183;50.930;5.406;2023-02-28T03:47:14;7.93;;;5.90;;
69900;SDS011;57183;50.930;5.406;2023-02-28T03:52:19;11.85;;;7.30;;
69900;SDS011;57183;50.930;5.406;2023-02-28T03:54:50;9.50;;;6.25;;
69900;SDS011;57183;50.930;5.406;2023-02-28T03:57:26;9.80;;;6.25;;
69900;SDS011;57183;50.930;5.406;2023-02-28T04:00:20;10.75;;;6.43;;
69900;SDS011;57183;50.930;5.406;2023-02-28T04:02:45;9.35;;;6.53;;
69900;SDS011;57183;50.930;5.406;2023-02-28T04:05:17;6.68;;;6.00;;
69900;SDS011;57183;50.930;5.406;2023-02-28T04:07:44;11.38;;;6.25;;
69900;SDS011;57183;50.930;5.406;2023-02-28T04:10:10;11.60;;;6.88;;
69900;SDS011;57183;50.930;5.406;2023-02-28T04:12:37;8.63;;;5.97;;
69900;SDS011;57183;50.930;5.406;2023-02-28T04:15:03;10.70;;;6.72;;
69900;SDS011;57183;50.930;5.406;2023-02-28T04:17:30;11.10;;;6.88;;
69900;SDS011;57183;50.930;5.406;2023-02-28T04:19:56;7.57;;;6.78;;
69900;SDS011;57183;50.930;5.406;2023-02-28T04:22:22;10.07;;;7.53;;
69900;SDS011;57183;50.930;5.406;2023-02-28T04:24:51;10.20;;;6.57;;
69900;SDS011;57183;50.930;5.406;2023-02-28T04:27:19;10.20;;;7.22;;
69900;SDS011;57183;50.930;5.406;2023-02-28T04:29:45;11.23;;;7.82;;
69900;SDS011;57183;50.930;5.406;2023-02-28T04:32:11;9.80;;;6.40;;
69900;SDS011;57183;50.930;5.406;2023-02-28T04:34:37;8.40;;;6.22;;
69900;SDS011;57183;50.930;5.406;2023-02-28T04:37:03;13.70;;;6.45;;
69900;SDS011;57183;50.930;5.406;2023-02-28T04:39:29;9.23;;;7.07;;
69900;SDS011;57183;50.930;5.406;2023-02-28T04:41:55;8.55;;;6.07;;
69900;SDS011;57183;50.930;5.406;2023-02-28T04:44:21;8.73;;;6.50;;
69900;SDS011;57183;50.930;5.406;2023-02-28T04:46:48;10.50;;;7.63;;
69900;SDS011;57183;50.930;5.406;2023-02-28T04:49:15;8.60;;;7.13;;
69900;SDS011;57183;50.930;5.406;2023-02-28T04:51:41;9.20;;;6.63;;
69900;SDS011;57183;50.930;5.406;2023-02-28T04:54:07;7.88;;;6.10;;
69900;SDS011;57183;50.930;5.406;2023-02-28T04:56:33;11.30;;;6.38;;
69900;SDS011;57183;50.930;5.406;2023-02-28T04:58:59;13.55;;;7.47;;
69900;SDS011;57183;50.930;5.406;2023-02-28T05:01:28;11.23;;;7.43;;
69900;SDS011;57183;50.930;5.406;2023-02-28T05:03:58;10.38;;;7.78;;
69900;SDS011;57183;50.930;5.406;2023-02-28T05:06:25;9.32;;;7.22;;
69900;SDS011;57183;50.930;5.406;2023-02-28T05:08:52;8.63;;;6.60;;
69900;SDS011;57183;50.930;5.406;2023-02-28T05:11:20;11.02;;;7.97;;
69900;SDS011;57183;50.930;5.406;2023-02-28T05:14:00;11.60;;;7.30;;
69900;SDS011;57183;50.930;5.406;2023-02-28T05:16:27;12.80;;;6.95;;
69900;SDS011;57183;50.930;5.406;2023-02-28T05:18:52;10.85;;;6.60;;
69900;SDS011;57183;50.930;5.406;2023-02-28T05:21:29;11.75;;;7.55;;
69900;SDS011;57183;50.930;5.406;2023-02-28T05:24:00;12.25;;;7.38;;
69900;SDS011;57183;50.930;5.406;2023-02-28T05:26:28;7.70;;;6.20;;
69900;SDS011;57183;50.930;5.406;2023-02-28T05:29:14;8.90;;;7.70;;
69900;SDS011;57183;50.930;5.406;2023-02-28T05:31:42;11.32;;;7.05;;
69900;SDS011;57183;50.930;5.406;2023-02-28T05:34:08;11.50;;;7.53;;
69900;SDS011;57183;50.930;5.406;2023-02-28T05:36:36;11.38;;;7.60;;
69900;SDS011;57183;50.930;5.406;2023-02-28T05:39:04;14.02;;;7.00;;
69900;SDS011;57183;50.930;5.406;2023-02-28T05:41:32;9.88;;;7.60;;
69900;SDS011;57183;50.930;5.406;2023-02-28T05:44:00;11.15;;;7.72;;
69900;SDS011;57183;50.930;5.406;2023-02-28T05:46:26;13.43;;;7.57;;
69900;SDS011;57183;50.930;5.406;2023-02-28T05:48:52;11.43;;;7.28;;
69900;SDS011;57183;50.930;5.406;2023-02-28T05:51:17;11.00;;;6.65;;
69900;SDS011;57183;50.930;5.406;2023-02-28T05:53:43;8.07;;;6.75;;
69900;SDS011;57183;50.930;5.406;2023-02-28T05:56:29;9.40;;;7.43;;
69900;SDS011;57183;50.930;5.406;2023-02-28T05:58:55;13.07;;;8.57;;
69900;SDS011;57183;50.930;5.406;2023-02-28T06:01:35;14.10;;;7.70;;
69900;SDS011;57183;50.930;5.406;2023-02-28T06:04:03;11.75;;;7.75;;
69900;SDS011;57183;50.930;5.406;2023-02-28T06:06:30;9.82;;;6.97;;
69900;SDS011;57183;50.930;5.406;2023-02-28T06:08:59;11.63;;;7.93;;
69900;SDS011;57183;50.930;5.406;2023-02-28T06:11:26;11.05;;;7.65;;
69900;SDS011;57183;50.930;5.406;2023-02-28T06:13:53;13.70;;;7.70;;
69900;SDS011;57183;50.930;5.406;2023-02-28T06:16:20;11.52;;;7.43;;
69900;SDS011;57183;50.930;5.406;2023-02-28T06:18:47;11.05;;;6.85;;
69900;SDS011;57183;50.930;5.406;2023-02-28T06:21:15;8.82;;;6.47;;
69900;SDS011;57183;50.930;5.406;2023-02-28T06:23:41;12.52;;;6.93;;
69900;SDS011;57183;50.930;5.406;2023-02-28T06:26:07;11.98;;;6.85;;
69900;SDS011;57183;50.930;5.406;2023-02-28T06:28:32;9.98;;;6.97;;
69900;SDS011;57183;50.930;5.406;2023-02-28T06:30:58;10.48;;;8.13;;
69900;SDS011;57183;50.930;5.406;2023-02-28T06:33:24;10.35;;;7.60;;
69900;SDS011;57183;50.930;5.406;2023-02-28T06:35:50;10.00;;;7.47;;
69900;SDS011;57183;50.930;5.406;2023-02-28T06:38:17;9.65;;;7.55;;
69900;SDS011;57183;50.930;5.406;2023-02-28T06:40:43;9.07;;;7.03;;
69900;SDS011;57183;50.930;5.406;2023-02-28T06:43:10;12.57;;;6.75;;
69900;SDS011;57183;50.930;5.406;2023-02-28T06:45:41;11.93;;;6.88;;
69900;SDS011;57183;50.930;5.406;2023-02-28T06:48:08;11.65;;;7.45;;
69900;SDS011;57183;50.930;5.406;2023-02-28T06:50:35;11.98;;;7.45;;
69900;SDS011;57183;50.930;5.406;2023-02-28T06:53:04;11.15;;;7.43;;
69900;SDS011;57183;50.930;5.406;2023-02-28T06:55:30;8.73;;;6.60;;
69900;SDS011;57183;50.930;5.406;2023-02-28T06:58:07;8.32;;;6.55;;
69900;SDS011;57183;50.930;5.406;2023-02-28T07:00:41;12.90;;;7.18;;
69900;SDS011;57183;50.930;5.406;2023-02-28T07:03:08;10.52;;;7.60;;
69900;SDS011;57183;50.930;5.406;2023-02-28T07:05:38;17.42;;;7.65;;
69900;SDS011;57183;50.930;5.406;2023-02-28T07:08:05;10.57;;;6.57;;
69900;SDS011;57183;50.930;5.406;2023-02-28T07:10:32;11.00;;;6.38;;
69900;SDS011;57183;50.930;5.406;2023-02-28T07:12:59;8.85;;;6.88;;
69900;SDS011;57183;50.930;5.406;2023-02-28T07:15:25;10.20;;;7.05;;
69900;SDS011;57183;50.930;5.406;2023-02-28T07:17:51;12.20;;;7.00;;
69900;SDS011;57183;50.930;5.406;2023-02-28T07:20:21;10.25;;;6.90;;
69900;SDS011;57183;50.930;5.406;2023-02-28T07:22:48;9.18;;;5.85;;
69900;SDS011;57183;50.930;5.406;2023-02-28T07:25:20;13.10;;;6.63;;
69900;SDS011;57183;50.930;5.406;2023-02-28T07:27:50;14.57;;;6.28;;
69900;SDS011;57183;50.930;5.406;2023-02-28T07:30:16;10.38;;;6.90;;
69900;SDS011;57183;50.930;5.406;2023-02-28T07:32:42;9.23;;;6.32;;
69900;SDS011;57183;50.930;5.406;2023-02-28T07:35:07;9.63;;;6.45;;
69900;SDS011;57183;50.930;5.406;2023-02-28T07:37:33;9.30;;;6.10;;
69900;SDS011;57183;50.930;5.406;2023-02-28T07:40:04;7.55;;;6.05;;
69900;SDS011;57183;50.930;5.406;2023-02-28T07:45:02;7.65;;;6.13;;
69900;SDS011;57183;50.930;5.406;2023-02-28T07:47:29;14.25;;;8.73;;
69900;SDS011;57183;50.930;5.406;2023-02-28T07:49:57;34.40;;;16.98;;
69900;SDS011;57183;50.930;5.406;2023-02-28T07:52:23;34.97;;;14.95;;
69900;SDS011;57183;50.930;5.406;2023-02-28T07:54:49;22.67;;;14.18;;
69900;SDS011;57183;50.930;5.406;2023-02-28T07:57:16;20.73;;;11.50;;
69900;SDS011;57183;50.930;5.406;2023-02-28T07:59:42;30.13;;;16.73;;
69900;SDS011;57183;50.930;5.406;2023-02-28T08:02:17;57.42;;;27.42;;
69900;SDS011;57183;50.930;5.406;2023-02-28T08:04:43;60.53;;;27.45;;
69900;SDS011;57183;50.930;5.406;2023-02-28T08:07:09;15.90;;;9.75;;
69900;SDS011;57183;50.930;5.406;2023-02-28T08:09:38;43.80;;;18.80;;
69900;SDS011;57183;50.930;5.406;2023-02-28T08:12:05;14.65;;;8.27;;
69900;SDS011;57183;50.930;5.406;2023-02-28T08:14:34;26.52;;;13.73;;
69900;SDS011;57183;50.930;5.406;2023-02-28T08:17:00;22.67;;;12.43;;
69900;SDS011;57183;50.930;5.406;2023-02-28T08:19:26;20.40;;;10.63;;
69900;SDS011;57183;50.930;5.406;2023-02-28T08:21:52;16.92;;;9.63;;
69900;SDS011;57183;50.930;5.406;2023-02-28T08:24:18;14.43;;;7.45;;
69900;SDS011;57183;50.930;5.406;2023-02-28T08:26:44;10.82;;;6.57;;
69900;SDS011;57183;50.930;5.406;2023-02-28T08:29:09;11.65;;;6.93;;
69900;SDS011;57183;50.930;5.406;2023-02-28T08:31:35;12.75;;;5.95;;
69900;SDS011;57183;50.930;5.406;2023-02-28T08:34:05;7.38;;;6.10;;
69900;SDS011;57183;50.930;5.406;2023-02-28T08:36:34;8.25;;;5.38;;
69900;SDS011;57183;50.930;5.406;2023-02-28T08:39:00;10.00;;;6.15;;
69900;SDS011;57183;50.930;5.406;2023-02-28T08:41:26;9.63;;;5.70;;
69900;SDS011;57183;50.930;5.406;2023-02-28T08:43:52;7.95;;;5.88;;
69900;SDS011;57183;50.930;5.406;2023-02-28T08:46:18;7.78;;;4.95;;
69900;SDS011;57183;50.930;5.406;2023-02-28T08:48:44;7.80;;;5.10;;
69900;SDS011;57183;50.930;5.406;2023-02-28T08:51:12;5.50;;;4.50;;
69900;SDS011;57183;50.930;5.406;2023-02-28T08:53:41;6.10;;;3.55;;
69900;SDS011;57183;50.930;5.406;2023-02-28T08:56:11;6.85;;;5.38;;
69900;SDS011;57183;50.930;5.406;2023-02-28T08:58:38;5.97;;;4.00;;
69900;SDS011;57183;50.930;5.406;2023-02-28T09:01:11;4.47;;;3.55;;
69900;SDS011;57183;50.930;5.406;2023-02-28T09:03:39;4.10;;;2.75;;
69900;SDS011;57183;50.930;5.406;2023-02-28T09:06:06;4.03;;;3.30;;
69900;SDS011;57183;50.930;5.406;2023-02-28T09:08:33;4.35;;;3.00;;
69900;SDS011;57183;50.930;5.406;2023-02-28T09:10:59;4.88;;;3.10;;
69900;SDS011;57183;50.930;5.406;2023-02-28T09:13:25;5.30;;;3.83;;
69900;SDS011;57183;50.930;5.406;2023-02-28T09:15:52;4.10;;;3.50;;
69900;SDS011;57183;50.930;5.406;2023-02-28T09:18:18;5.63;;;3.45;;
69900;SDS011;57183;50.930;5.406;2023-02-28T09:20:44;4.22;;;2.75;;
69900;SDS011;57183;50.930;5.406;2023-02-28T09:23:11;3.53;;;1.83;;
69900;SDS011;57183;50.930;5.406;2023-02-28T09:25:37;4.82;;;4.00;;
69900;SDS011;57183;50.930;5.406;2023-02-28T09:28:09;3.22;;;2.90;;
69900;SDS011;57183;50.930;5.406;2023-02-28T09:30:36;4.13;;;2.40;;
69900;SDS011;57183;50.930;5.406;2023-02-28T09:33:02;10.13;;;1.95;;
69900;SDS011;57183;50.930;5.406;2023-02-28T09:35:28;2.58;;;1.58;;
69900;SDS011;57183;50.930;5.406;2023-02-28T09:37:55;4.78;;;3.35;;
69900;SDS011;57183;50.930;5.406;2023-02-28T09:40:23;3.40;;;2.75;;
69900;SDS011;57183;50.930;5.406;2023-02-28T09:42:51;4.55;;;1.80;;
69900;SDS011;57183;50.930;5.406;2023-02-28T09:47:52;7.75;;;2.67;;
69900;SDS011;57183;50.930;5.406;2023-02-28T09:53:21;12.63;;;1.92;;
69900;SDS011;57183;50.930;5.406;2023-02-28T09:56:15;4.07;;;1.77;;
69900;SDS011;57183;50.930;5.406;2023-02-28T09:58:51;4.43;;;3.65;;
69900;SDS011;57183;50.930;5.406;2023-02-28T10:01:32;5.68;;;2.88;;
69900;SDS011;57183;50.930;5.406;2023-02-28T10:06:54;3.22;;;2.75;;
69900;SDS011;57183;50.930;5.406;2023-02-28T10:11:56;3.10;;;2.08;;
69900;SDS011;57183;50.930;5.406;2023-02-28T10:14:26;4.50;;;2.63;;
69900;SDS011;57183;50.930;5.406;2023-02-28T10:16:55;5.18;;;2.60;;
69900;SDS011;57183;50.930;5.406;2023-02-28T10:24:53;4.72;;;2.72;;
69900;SDS011;57183;50.930;5.406;2023-02-28T10:27:25;5.03;;;2.40;;
69900;SDS011;57183;50.930;5.406;2023-02-28T10:29:57;4.80;;;2.67;;
69900;SDS011;57183;50.930;5.406;2023-02-28T10:32:26;2.60;;;2.00;;
69900;SDS011;57183;50.930;5.406;2023-02-28T10:35:21;3.50;;;1.70;;
69900;SDS011;57183;50.930;5.406;2023-02-28T10:37:51;1.95;;;1.70;;
69900;SDS011;57183;50.930;5.406;2023-02-28T10:42:56;2.53;;;1.70;;
69900;SDS011;57183;50.930;5.406;2023-02-28T10:45:23;1.98;;;1.40;;
69900;SDS011;57183;50.930;5.406;2023-02-28T10:47:55;2.63;;;1.55;;
69900;SDS011;57183;50.930;5.406;2023-02-28T10:50:37;2.75;;;1.20;;
69900;SDS011;57183;50.930;5.406;2023-02-28T11:01:26;2.72;;;1.55;;
69900;SDS011;57183;50.930;5.406;2023-02-28T11:07:18;1.67;;;1.45;;
69900;SDS011;57183;50.930;5.406;2023-02-28T11:09:49;1.65;;;1.52;;
69900;SDS011;57183;50.930;5.406;2023-02-28T11:12:25;1.00;;;0.80;;
69900;SDS011;57183;50.930;5.406;2023-02-28T11:14:59;2.28;;;1.30;;
69900;SDS011;57183;50.930;5.406;2023-02-28T11:17:30;3.90;;;1.07;;
69900;SDS011;57183;50.930;5.406;2023-02-28T11:20:07;1.50;;;1.35;;
69900;SDS011;57183;50.930;5.406;2023-02-28T11:22:44;1.60;;;1.38;;
69900;SDS011;57183;50.930;5.406;2023-02-28T11:25:21;7.18;;;1.67;;
69900;SDS011;57183;50.930;5.406;2023-02-28T11:27:51;1.65;;;1.27;;
69900;SDS011;57183;50.930;5.406;2023-02-28T11:32:56;5.75;;;1.38;;
69900;SDS011;57183;50.930;5.406;2023-02-28T11:35:31;1.40;;;1.20;;
69900;SDS011;57183;50.930;5.406;2023-02-28T11:38:01;2.47;;;1.30;;
69900;SDS011;57183;50.930;5.406;2023-02-28T11:40:39;2.22;;;1.30;;
69900;SDS011;57183;50.930;5.406;2023-02-28T11:43:27;1.55;;;1.38;;
69900;SDS011;57183;50.930;5.406;2023-02-28T11:51:45;1.42;;;1.15;;
69900;SDS011;57183;50.930;5.406;2023-02-28T12:05:29;2.53;;;2.03;;
69900;SDS011;57183;50.930;5.406;2023-02-28T12:13:29;4.65;;;1.67;;
69900;SDS011;57183;50.930;5.406;2023-02-28T12:19:12;2.50;;;1.50;;
69900;SDS011;57183;50.930;5.406;2023-02-28T12:24:55;1.90;;;1.60;;
69900;SDS011;57183;50.930;5.406;2023-02-28T12:27:43;3.80;;;1.90;;
69900;SDS011;57183;50.930;5.406;2023-02-28T12:32:58;2.45;;;1.40;;
69900;SDS011;57183;50.930;5.406;2023-02-28T12:35:34;2.80;;;1.70;;
69900;SDS011;57183;50.930;5.406;2023-02-28T12:41:00;3.45;;;1.98;;
69900;SDS011;57183;50.930;5.406;2023-02-28T12:43:55;3.15;;;2.20;;
69900;SDS011;57183;50.930;5.406;2023-02-28T12:46:39;4.45;;;2.50;;
69900;SDS011;57183;50.930;5.406;2023-02-28T12:49:10;8.82;;;2.17;;
69900;SDS011;57183;50.930;5.406;2023-02-28T12:51:46;3.30;;;2.33;;
69900;SDS011;57183;50.930;5.406;2023-02-28T12:57:15;4.78;;;2.97;;
69900;SDS011;57183;50.930;5.406;2023-02-28T13:00:03;4.55;;;2.00;;
69900;SDS011;57183;50.930;5.406;2023-02-28T13:11:48;3.33;;;2.75;;
69900;SDS011;57183;50.930;5.406;2023-02-28T13:14:26;2.70;;;2.03;;
69900;SDS011;57183;50.930;5.406;2023-02-28T13:17:01;7.05;;;4.78;;
69900;SDS011;57183;50.930;5.406;2023-02-28T13:19:38;3.92;;;3.13;;
69900;SDS011;57183;50.930;5.406;2023-02-28T13:22:51;2.83;;;2.28;;
69900;SDS011;57183;50.930;5.406;2023-02-28T13:25:00;3.10;;;2.53;;
69900;SDS011;57183;50.930;5.406;2023-02-28T13:27:35;2.85;;;2.55;;
69900;SDS011;57183;50.930;5.406;2023-02-28T13:33:21;3.50;;;3.13;;
69900;SDS011;57183;50.930;5.406;2023-02-28T13:44:02;3.50;;;2.33;;
69900;SDS011;57183;50.930;5.406;2023-02-28T13:52:02;3.65;;;3.17;;
69900;SDS011;57183;50.930;5.406;2023-02-28T14:03:38;2.45;;;1.85;;
69900;SDS011;57183;50.930;5.406;2023-02-28T14:11:28;4.38;;;2.80;;
69900;SDS011;57183;50.930;5.406;2023-02-28T14:13:56;4.13;;;3.72;;
69900;SDS011;57183;50.930;5.406;2023-02-28T14:16:45;2.83;;;2.28;;
69900;SDS011;57183;50.930;5.406;2023-02-28T14:19:19;3.33;;;2.90;;
69900;SDS011;57183;50.930;5.406;2023-02-28T14:31:13;3.97;;;2.38;;
69900;SDS011;57183;50.930;5.406;2023-02-28T14:37:05;2.35;;;2.05;;
69900;SDS011;57183;50.930;5.406;2023-02-28T14:42:35;3.28;;;2.28;;
69900;SDS011;57183;50.930;5.406;2023-02-28T14:45:19;2.83;;;2.30;;
69900;SDS011;57183;50.930;5.406;2023-02-28T14:47:49;4.28;;;2.97;;
69900;SDS011;57183;50.930;5.406;2023-02-28T14:50:24;3.22;;;2.10;;
69900;SDS011;57183;50.930;5.406;2023-02-28T14:52:54;3.35;;;2.70;;
69900;SDS011;57183;50.930;5.406;2023-02-28T14:55:43;2.80;;;2.50;;
69900;SDS011;57183;50.930;5.406;2023-02-28T15:01:05;8.18;;;4.18;;
69900;SDS011;57183;50.930;5.406;2023-02-28T15:03:36;3.38;;;2.30;;
69900;SDS011;57183;50.930;5.406;2023-02-28T15:06:15;2.88;;;2.17;;
69900;SDS011;57183;50.930;5.406;2023-02-28T15:08:43;3.40;;;2.33;;
69900;SDS011;57183;50.930;5.406;2023-02-28T15:13:48;2.72;;;1.65;;
69900;SDS011;57183;50.930;5.406;2023-02-28T15:16:19;4.53;;;2.83;;
69900;SDS011;57183;50.930;5.406;2023-02-28T15:18:59;2.95;;;2.30;;
69900;SDS011;57183;50.930;5.406;2023-02-28T15:21:32;2.95;;;2.20;;
69900;SDS011;57183;50.930;5.406;2023-02-28T15:24:13;4.68;;;2.63;;
69900;SDS011;57183;50.930;5.406;2023-02-28T15:26:50;6.03;;;2.92;;
69900;SDS011;57183;50.930;5.406;2023-02-28T15:29:24;3.45;;;2.42;;
69900;SDS011;57183;50.930;5.406;2023-02-28T15:31:56;4.50;;;2.90;;
69900;SDS011;57183;50.930;5.406;2023-02-28T15:34:42;2.70;;;2.47;;
69900;SDS011;57183;50.930;5.406;2023-02-28T15:40:49;3.75;;;2.30;;
69900;SDS011;57183;50.930;5.406;2023-02-28T15:43:03;4.13;;;2.30;;
69900;SDS011;57183;50.930;5.406;2023-02-28T15:45:36;6.97;;;4.22;;
69900;SDS011;57183;50.930;5.406;2023-02-28T15:48:15;15.35;;;10.35;;
69900;SDS011;57183;50.930;5.406;2023-02-28T15:50:48;16.40;;;7.80;;
69900;SDS011;57183;50.930;5.406;2023-02-28T15:53:19;8.38;;;5.68;;
69900;SDS011;57183;50.930;5.406;2023-02-28T15:55:54;2.72;;;2.17;;
69900;SDS011;57183;50.930;5.406;2023-02-28T15:58:32;3.72;;;2.92;;
69900;SDS011;57183;50.930;5.406;2023-02-28T16:01:46;6.05;;;3.35;;
69900;SDS011;57183;50.930;5.406;2023-02-28T16:03:56;6.18;;;4.00;;
69900;SDS011;57183;50.930;5.406;2023-02-28T16:09:15;7.45;;;5.07;;
69900;SDS011;57183;50.930;5.406;2023-02-28T16:11:43;4.72;;;3.92;;
69900;SDS011;57183;50.930;5.406;2023-02-28T16:14:13;3.97;;;2.92;;
69900;SDS011;57183;50.930;5.406;2023-02-28T16:16:43;4.78;;;4.25;;
69900;SDS011;57183;50.930;5.406;2023-02-28T16:19:16;3.30;;;2.63;;
69900;SDS011;57183;50.930;5.406;2023-02-28T16:21:43;4.70;;;4.07;;
69900;SDS011;57183;50.930;5.406;2023-02-28T16:24:11;5.93;;;4.68;;
69900;SDS011;57183;50.930;5.406;2023-02-28T16:26:57;4.68;;;3.67;;
69900;SDS011;57183;50.930;5.406;2023-02-28T16:29:32;3.92;;;2.95;;
69900;SDS011;57183;50.930;5.406;2023-02-28T16:32:01;4.22;;;3.83;;
69900;SDS011;57183;50.930;5.406;2023-02-28T16:34:30;6.72;;;3.85;;
69900;SDS011;57183;50.930;5.406;2023-02-28T16:36:57;3.05;;;2.63;;
69900;SDS011;57183;50.930;5.406;2023-02-28T16:39:24;4.50;;;3.75;;
69900;SDS011;57183;50.930;5.406;2023-02-28T16:41:52;5.20;;;3.88;;
69900;SDS011;57183;50.930;5.406;2023-02-28T16:44:32;7.50;;;5.95;;
69900;SDS011;57183;50.930;5.406;2023-02-28T16:47:00;6.38;;;5.05;;
69900;SDS011;57183;50.930;5.406;2023-02-28T16:49:27;4.82;;;4.00;;
69900;SDS011;57183;50.930;5.406;2023-02-28T16:51:53;4.75;;;3.42;;
69900;SDS011;57183;50.930;5.406;2023-02-28T16:54:19;9.50;;;7.22;;
69900;SDS011;57183;50.930;5.406;2023-02-28T16:56:46;5.47;;;3.88;;
69900;SDS011;57183;50.930;5.406;2023-02-28T17:04:24;7.47;;;4.40;;
69900;SDS011;57183;50.930;5.406;2023-02-28T17:06:52;8.65;;;3.92;;
69900;SDS011;57183;50.930;5.406;2023-02-28T17:09:29;9.48;;;6.18;;
69900;SDS011;57183;50.930;5.406;2023-02-28T17:11:55;9.70;;;5.78;;
69900;SDS011;57183;50.930;5.406;2023-02-28T17:14:23;8.82;;;5.30;;
69900;SDS011;57183;50.930;5.406;2023-02-28T17:16:52;6.97;;;4.57;;
69900;SDS011;57183;50.930;5.406;2023-02-28T17:19:17;6.45;;;4.40;;
69900;SDS011;57183;50.930;5.406;2023-02-28T17:27:41;14.15;;;3.85;;
69900;SDS011;57183;50.930;5.406;2023-02-28T17:30:14;3.42;;;2.78;;
69900;SDS011;57183;50.930;5.406;2023-02-28T17:32:46;5.72;;;4.20;;
69900;SDS011;57183;50.930;5.406;2023-02-28T17:35:12;4.35;;;3.38;;
69900;SDS011;57183;50.930;5.406;2023-02-28T17:37:38;5.80;;;3.72;;
69900;SDS011;57183;50.930;5.406;2023-02-28T17:40:04;5.15;;;4.10;;
69900;SDS011;57183;50.930;5.406;2023-02-28T17:42:30;4.97;;;3.85;;
69900;SDS011;57183;50.930;5.406;2023-02-28T17:44:56;5.40;;;3.92;;
69900;SDS011;57183;50.930;5.406;2023-02-28T17:47:22;5.78;;;4.75;;
69900;SDS011;57183;50.930;5.406;2023-02-28T17:49:47;6.50;;;4.50;;
69900;SDS011;57183;50.930;5.406;2023-02-28T17:52:13;11.48;;;5.70;;
69900;SDS011;57183;50.930;5.406;2023-02-28T17:54:39;6.90;;;5.53;;
69900;SDS011;57183;50.930;5.406;2023-02-28T17:57:04;10.98;;;7.45;;
69900;SDS011;57183;50.930;5.406;2023-02-28T17:59:30;10.27;;;5.75;;
69900;SDS011;57183;50.930;5.406;2023-02-28T18:02:01;7.28;;;4.22;;
69900;SDS011;57183;50.930;5.406;2023-02-28T18:04:28;3.85;;;3.30;;
69900;SDS011;57183;50.930;5.406;2023-02-28T18:06:54;7.50;;;3.50;;
69900;SDS011;57183;50.930;5.406;2023-02-28T18:09:25;5.05;;;3.55;;
69900;SDS011;57183;50.930;5.406;2023-02-28T18:11:53;3.58;;;2.83;;
69900;SDS011;57183;50.930;5.406;2023-02-28T18:14:20;6.47;;;3.95;;